• Join FlightAware (Why Join?)
  • Login
  • US Flag 
03:04PM EDT


 

Airport Tracker/Info


-or-


 

Live Flight TrackerFlight Track Log ✈ UAL3815 ✈ 10-May-2013 ✈ KCLE - KORD

Flight Track Log - Related Links

Times and Time Zones

All times are in EDT time to prevent confusion due to time zone crossing. See the UAL3815 flight status page for this flight to view local times or setup timezone preferences in your user account.

Time Position Orientation Groundspeed Altitude Reporting Facility
EDT Latitude Longitude Course Direction KTS MPH feet Rate Location/Type
07:59AM 41.3897 -81.8867 252° West 165 190 2,000  Level Cleveland Center
07:59AM 41.3914 -81.9172 274° West 177 204 3,100 1,680 Climbing Cleveland Center
08:00AM 41.3950 -81.9617 276° West 207 238 3,900 1,800 Climbing Cleveland Center
08:00AM 41.3967 -81.9947 274° West 226 260 4,900 2,280 Climbing Cleveland Center
08:01AM 41.3878 -82.0389 255° West 239 275 6,000 2,160 Climbing Cleveland Center
08:01AM 41.3831 -82.0775 261° West 231 266 7,100 2,100 Climbing Cleveland Center
08:02AM 41.3416 -82.2760 263° West  Level FlightAware Approximate
08:02AM 41.3675 -82.1631 256° West 237 273 9,200  Level Cleveland Center
08:03AM 41.3290 -82.3840 252° West  Level FlightAware Approximate
08:03AM 41.3514 -82.2594 257° West 250 288 10,600  Level Cleveland Center
08:04AM 41.3030 -82.4880 252° West  Level FlightAware Approximate
08:04AM 41.3356 -82.3558 258° West 277 319 11,400  Level Cleveland Center
08:05AM 41.3169 -82.4714 258° West 309 356 12,800 1,500 Climbing Cleveland Center
08:06AM 41.3128 -82.5903 267° West 322 371 14,400 1,500 Climbing Cleveland Center
08:07AM 41.3147 -82.7092 271° West 328 377 15,800 1,260 Climbing Cleveland Center
08:08AM 41.3144 -82.8308 270° West 328 377 17,000 1,140 Climbing Cleveland Center
08:09AM 41.3142 -82.9525 270° West 328 377 18,100 1,200 Climbing Cleveland Center
08:10AM 41.3197 -83.0797 273° West 333 383 19,400 1,200 Climbing Cleveland Center
08:11AM 41.3464 -83.1997 287° West 340 391 20,500 1,080 Climbing Cleveland Center
08:12AM 41.3725 -83.3253 286° West 345 397 21,600 720 Climbing Cleveland Center
08:13AM 41.3817 -83.4586 275° West 351 404 22,000 180 Climbing Cleveland Center
08:14AM 41.3761 -83.5967 267° West 364 419 22,000  Level Cleveland Center
08:15AM 41.3700 -83.7431 267° West 385 443 22,000  Level Cleveland Center
08:16AM 41.3639 -83.8867 267° West 391 450 22,000  Level Cleveland Center
08:17AM 41.3578 -84.0275 267° West 391 450 22,000  Level Cleveland Center
08:19AM 41.3508 -84.2311 267° West 374 430 22,000  Level Chicago Center
08:20AM 41.3450 -84.3683 267° West 373 429 22,000  Level Chicago Center
08:22AM 41.3314 -84.6792 267° West 383 441 22,000  Level Chicago Center
08:23AM 41.3236 -84.8206 266° West 384 442 22,000  Level Chicago Center
08:24AM 41.3164 -84.9636 266° West 386 444 22,000  Level Chicago Center
08:25AM 41.3092 -85.1072 266° West 387 445 22,000  Level Chicago Center
08:26AM 41.3036 -85.2528 267° West 390 449 22,000  Level Chicago Center
08:27AM 41.3014 -85.4014 269° West 396 456 22,000  Level Chicago Center
08:28AM 41.2975 -85.5506 268° West 400 460 22,000  Level Chicago Center
08:29AM 41.2933 -85.6975 268° West 396 456 22,000  Level Chicago Center
08:30AM 41.2892 -85.8461 268° West 398 458 22,000  Level Chicago Center
08:31AM 41.2933 -86.0217 272° West 405 466 22,000 -240 Level Chicago Center
08:32AM 41.3494 -86.1522 300° West 410 472 21,600 -720 Descending Chicago Center
08:33AM 41.4100 -86.2778 303° West 404 465 20,600 -1,020 Descending Chicago Center
08:34AM 41.4708 -86.4033 303° West 402 463 19,600 -1,080 Descending Chicago Center
08:35AM 41.5294 -86.5253 303° West 394 453 18,400 -2,160 Descending Chicago Center
08:36AM 41.5856 -86.6428 303° West 380 437 15,200 -3,120 Descending Chicago Center
08:38AM 41.6408 -86.7564 303° West 347 399 12,100 -1,560 Descending Chicago Center
08:39AM 41.7156 -86.8003 336° Northwest 303 349 12,000 -540 Descending Chicago Center
08:40AM 41.8167 -86.8181 353° North 308 354 11,000 -540 Descending Chicago Center
08:41AM 41.8833 -86.8628 333° Northwest 288 331 10,900 -660 Descending Chicago Center
08:42AM 41.9058 -86.9556 288° West 265 305 9,700 -960 Descending Chicago Center
08:43AM 41.9292 -87.0461 289° West 259 298 9,000 -360 Descending Chicago Center
08:44AM 41.9536 -87.1375 290° West 261 300 9,000 -60 Level Chicago Center
08:45AM 41.9778 -87.2300 289° West 265 305 8,900 -180 Descending Chicago Center
08:46AM 41.9844 -87.3428 275° West 256 295 8,700 -660 Descending Chicago Center
08:47AM 41.9822 -87.4325 268° West 245 282 7,600 -1,260 Descending Chicago Center
08:48AM 41.9833 -87.5172 271° West 230 265 6,200 -1,320 Descending Chicago Center
08:49AM 41.9833 -87.6000 270° West 206 237 5,000 -1,140 Descending Chicago TRACON
08:50AM 41.9833 -87.6667 270° West 185 213 3,900 -1,020 Descending Chicago TRACON
08:51AM 41.9833 -87.7333 270° West 174 200 3,000 -1,020 Descending Chicago TRACON